sensor_id;sensor_type;location;lat;lon;timestamp;P1;durP1;ratioP1;P2;durP2;ratioP2
14611;SDS011;7392;52.078;11.650;2023-03-01T00:01:40;5.13;;;3.93;;
14611;SDS011;7392;52.078;11.650;2023-03-01T00:04:08;6.70;;;3.87;;
14611;SDS011;7392;52.078;11.650;2023-03-01T00:06:36;5.87;;;4.03;;
14611;SDS011;7392;52.078;11.650;2023-03-01T00:09:04;4.80;;;3.70;;
14611;SDS011;7392;52.078;11.650;2023-03-01T00:11:33;5.93;;;4.37;;
14611;SDS011;7392;52.078;11.650;2023-03-01T00:14:02;6.53;;;3.83;;
14611;SDS011;7392;52.078;11.650;2023-03-01T00:16:34;6.13;;;4.30;;
14611;SDS011;7392;52.078;11.650;2023-03-01T00:19:05;6.37;;;4.70;;
14611;SDS011;7392;52.078;11.650;2023-03-01T00:21:34;5.60;;;4.47;;
14611;SDS011;7392;52.078;11.650;2023-03-01T00:24:02;4.97;;;4.43;;
14611;SDS011;7392;52.078;11.650;2023-03-01T00:26:31;4.80;;;3.60;;
14611;SDS011;7392;52.078;11.650;2023-03-01T00:29:00;4.90;;;4.40;;
14611;SDS011;7392;52.078;11.650;2023-03-01T00:31:29;4.67;;;3.73;;
14611;SDS011;7392;52.078;11.650;2023-03-01T00:33:59;5.63;;;4.10;;
14611;SDS011;7392;52.078;11.650;2023-03-01T00:36:29;5.50;;;4.10;;
14611;SDS011;7392;52.078;11.650;2023-03-01T00:38:58;4.90;;;3.67;;
14611;SDS011;7392;52.078;11.650;2023-03-01T00:41:26;5.50;;;4.00;;
14611;SDS011;7392;52.078;11.650;2023-03-01T00:43:54;5.40;;;3.83;;
14611;SDS011;7392;52.078;11.650;2023-03-01T00:46:25;4.90;;;3.77;;
14611;SDS011;7392;52.078;11.650;2023-03-01T00:48:53;5.97;;;4.10;;
14611;SDS011;7392;52.078;11.650;2023-03-01T00:51:22;6.23;;;3.80;;
14611;SDS011;7392;52.078;11.650;2023-03-01T00:53:52;4.60;;;3.73;;
14611;SDS011;7392;52.078;11.650;2023-03-01T00:56:24;4.40;;;3.63;;
14611;SDS011;7392;52.078;11.650;2023-03-01T00:58:51;5.03;;;3.80;;
14611;SDS011;7392;52.078;11.650;2023-03-01T01:01:20;4.57;;;3.53;;
14611;SDS011;7392;52.078;11.650;2023-03-01T01:03:52;6.23;;;3.90;;
14611;SDS011;7392;52.078;11.650;2023-03-01T01:06:22;5.20;;;3.87;;
14611;SDS011;7392;52.078;11.650;2023-03-01T01:08:51;5.73;;;3.97;;
14611;SDS011;7392;52.078;11.650;2023-03-01T01:11:20;4.17;;;3.27;;
14611;SDS011;7392;52.078;11.650;2023-03-01T01:13:49;6.10;;;4.43;;
14611;SDS011;7392;52.078;11.650;2023-03-01T01:16:18;6.77;;;4.50;;
14611;SDS011;7392;52.078;11.650;2023-03-01T01:18:47;6.43;;;4.30;;
14611;SDS011;7392;52.078;11.650;2023-03-01T01:21:18;6.70;;;3.90;;
14611;SDS011;7392;52.078;11.650;2023-03-01T01:23:47;5.33;;;3.80;;
14611;SDS011;7392;52.078;11.650;2023-03-01T01:26:16;4.47;;;3.70;;
14611;SDS011;7392;52.078;11.650;2023-03-01T01:28:45;5.17;;;3.93;;
14611;SDS011;7392;52.078;11.650;2023-03-01T01:31:13;4.30;;;3.30;;
14611;SDS011;7392;52.078;11.650;2023-03-01T01:33:42;4.17;;;3.37;;
14611;SDS011;7392;52.078;11.650;2023-03-01T01:36:10;4.70;;;3.20;;
14611;SDS011;7392;52.078;11.650;2023-03-01T01:38:40;4.67;;;3.60;;
14611;SDS011;7392;52.078;11.650;2023-03-01T01:41:09;4.40;;;3.23;;
14611;SDS011;7392;52.078;11.650;2023-03-01T01:43:39;3.80;;;3.07;;
14611;SDS011;7392;52.078;11.650;2023-03-01T01:46:12;6.13;;;3.57;;
14611;SDS011;7392;52.078;11.650;2023-03-01T01:48:48;4.10;;;3.30;;
14611;SDS011;7392;52.078;11.650;2023-03-01T01:51:21;3.50;;;2.70;;
14611;SDS011;7392;52.078;11.650;2023-03-01T01:53:54;3.87;;;3.10;;
14611;SDS011;7392;52.078;11.650;2023-03-01T01:56:26;3.60;;;2.87;;
14611;SDS011;7392;52.078;11.650;2023-03-01T01:58:56;5.23;;;3.53;;
14611;SDS011;7392;52.078;11.650;2023-03-01T02:01:24;4.73;;;3.40;;
14611;SDS011;7392;52.078;11.650;2023-03-01T02:03:52;5.63;;;3.40;;
14611;SDS011;7392;52.078;11.650;2023-03-01T02:06:21;4.17;;;3.63;;
14611;SDS011;7392;52.078;11.650;2023-03-01T02:08:59;4.70;;;3.60;;
14611;SDS011;7392;52.078;11.650;2023-03-01T02:11:29;5.10;;;3.77;;
14611;SDS011;7392;52.078;11.650;2023-03-01T02:13:58;4.80;;;3.40;;
14611;SDS011;7392;52.078;11.650;2023-03-01T02:16:26;5.67;;;3.63;;
14611;SDS011;7392;52.078;11.650;2023-03-01T02:18:55;3.80;;;3.10;;
14611;SDS011;7392;52.078;11.650;2023-03-01T02:21:28;4.10;;;3.17;;
14611;SDS011;7392;52.078;11.650;2023-03-01T02:24:04;4.67;;;3.23;;
14611;SDS011;7392;52.078;11.650;2023-03-01T02:26:47;4.77;;;3.60;;
14611;SDS011;7392;52.078;11.650;2023-03-01T02:29:18;4.63;;;3.00;;
14611;SDS011;7392;52.078;11.650;2023-03-01T02:31:46;4.67;;;3.13;;
14611;SDS011;7392;52.078;11.650;2023-03-01T02:34:15;4.50;;;2.70;;
14611;SDS011;7392;52.078;11.650;2023-03-01T02:36:45;5.20;;;3.00;;
14611;SDS011;7392;52.078;11.650;2023-03-01T02:39:17;3.53;;;2.57;;
14611;SDS011;7392;52.078;11.650;2023-03-01T02:41:48;4.37;;;3.17;;
14611;SDS011;7392;52.078;11.650;2023-03-01T02:44:20;4.57;;;3.33;;
14611;SDS011;7392;52.078;11.650;2023-03-01T02:46:50;4.50;;;3.07;;
14611;SDS011;7392;52.078;11.650;2023-03-01T02:49:21;3.83;;;3.30;;
14611;SDS011;7392;52.078;11.650;2023-03-01T02:51:53;4.00;;;3.00;;
14611;SDS011;7392;52.078;11.650;2023-03-01T02:54:33;4.87;;;3.60;;
14611;SDS011;7392;52.078;11.650;2023-03-01T02:57:07;3.77;;;3.00;;
14611;SDS011;7392;52.078;11.650;2023-03-01T02:59:37;4.73;;;3.47;;
14611;SDS011;7392;52.078;11.650;2023-03-01T03:02:07;4.90;;;3.20;;
14611;SDS011;7392;52.078;11.650;2023-03-01T03:04:46;4.43;;;3.07;;
14611;SDS011;7392;52.078;11.650;2023-03-01T03:07:14;3.93;;;2.73;;
14611;SDS011;7392;52.078;11.650;2023-03-01T03:09:42;4.70;;;3.30;;
14611;SDS011;7392;52.078;11.650;2023-03-01T03:12:11;4.63;;;3.00;;
14611;SDS011;7392;52.078;11.650;2023-03-01T03:14:40;4.73;;;3.00;;
14611;SDS011;7392;52.078;11.650;2023-03-01T03:17:08;4.37;;;3.50;;
14611;SDS011;7392;52.078;11.650;2023-03-01T03:19:36;4.70;;;3.53;;
14611;SDS011;7392;52.078;11.650;2023-03-01T03:22:03;4.43;;;3.23;;
14611;SDS011;7392;52.078;11.650;2023-03-01T03:24:31;5.10;;;3.23;;
14611;SDS011;7392;52.078;11.650;2023-03-01T03:27:04;4.80;;;3.60;;
14611;SDS011;7392;52.078;11.650;2023-03-01T03:29:33;5.10;;;3.73;;
14611;SDS011;7392;52.078;11.650;2023-03-01T03:32:02;4.80;;;3.43;;
14611;SDS011;7392;52.078;11.650;2023-03-01T03:34:30;4.83;;;3.47;;
14611;SDS011;7392;52.078;11.650;2023-03-01T03:36:58;3.30;;;2.70;;
14611;SDS011;7392;52.078;11.650;2023-03-01T03:39:26;4.53;;;3.50;;
14611;SDS011;7392;52.078;11.650;2023-03-01T03:41:53;5.07;;;3.53;;
14611;SDS011;7392;52.078;11.650;2023-03-01T03:44:21;3.93;;;2.73;;
14611;SDS011;7392;52.078;11.650;2023-03-01T03:46:48;4.97;;;3.40;;
14611;SDS011;7392;52.078;11.650;2023-03-01T03:49:17;4.43;;;3.20;;
14611;SDS011;7392;52.078;11.650;2023-03-01T03:51:45;3.20;;;2.90;;
14611;SDS011;7392;52.078;11.650;2023-03-01T03:54:13;4.60;;;3.53;;
14611;SDS011;7392;52.078;11.650;2023-03-01T03:56:41;5.20;;;3.33;;
14611;SDS011;7392;52.078;11.650;2023-03-01T03:59:10;5.67;;;3.97;;
14611;SDS011;7392;52.078;11.650;2023-03-01T04:01:37;5.60;;;3.93;;
14611;SDS011;7392;52.078;11.650;2023-03-01T04:04:05;3.87;;;3.03;;
14611;SDS011;7392;52.078;11.650;2023-03-01T04:06:35;4.33;;;3.00;;
14611;SDS011;7392;52.078;11.650;2023-03-01T04:09:04;4.07;;;3.10;;
14611;SDS011;7392;52.078;11.650;2023-03-01T04:11:32;5.03;;;3.33;;
14611;SDS011;7392;52.078;11.650;2023-03-01T04:14:01;4.20;;;3.27;;
14611;SDS011;7392;52.078;11.650;2023-03-01T04:16:30;3.13;;;2.80;;
14611;SDS011;7392;52.078;11.650;2023-03-01T04:18:59;4.00;;;2.67;;
14611;SDS011;7392;52.078;11.650;2023-03-01T04:21:26;3.47;;;2.60;;
14611;SDS011;7392;52.078;11.650;2023-03-01T04:23:55;3.77;;;2.90;;
14611;SDS011;7392;52.078;11.650;2023-03-01T04:26:23;3.43;;;2.30;;
14611;SDS011;7392;52.078;11.650;2023-03-01T04:28:51;4.17;;;2.73;;
14611;SDS011;7392;52.078;11.650;2023-03-01T04:31:19;4.80;;;3.07;;
14611;SDS011;7392;52.078;11.650;2023-03-01T04:33:48;3.93;;;3.10;;
14611;SDS011;7392;52.078;11.650;2023-03-01T04:36:19;3.37;;;2.63;;
14611;SDS011;7392;52.078;11.650;2023-03-01T04:38:49;3.53;;;2.80;;
14611;SDS011;7392;52.078;11.650;2023-03-01T04:41:20;3.33;;;2.50;;
14611;SDS011;7392;52.078;11.650;2023-03-01T04:43:49;4.33;;;2.90;;
14611;SDS011;7392;52.078;11.650;2023-03-01T04:46:17;3.83;;;3.03;;
14611;SDS011;7392;52.078;11.650;2023-03-01T04:48:47;3.23;;;2.63;;
14611;SDS011;7392;52.078;11.650;2023-03-01T04:51:15;4.90;;;3.60;;
14611;SDS011;7392;52.078;11.650;2023-03-01T04:53:54;4.97;;;3.43;;
14611;SDS011;7392;52.078;11.650;2023-03-01T04:56:24;4.40;;;3.00;;
14611;SDS011;7392;52.078;11.650;2023-03-01T04:58:52;3.63;;;3.00;;
14611;SDS011;7392;52.078;11.650;2023-03-01T05:01:21;4.07;;;3.37;;
14611;SDS011;7392;52.078;11.650;2023-03-01T05:03:50;3.80;;;3.27;;
14611;SDS011;7392;52.078;11.650;2023-03-01T05:06:18;4.00;;;3.20;;
14611;SDS011;7392;52.078;11.650;2023-03-01T05:08:47;3.93;;;3.40;;
14611;SDS011;7392;52.078;11.650;2023-03-01T05:11:15;4.73;;;3.43;;
14611;SDS011;7392;52.078;11.650;2023-03-01T05:13:44;4.33;;;3.20;;
14611;SDS011;7392;52.078;11.650;2023-03-01T05:16:12;4.60;;;3.17;;
14611;SDS011;7392;52.078;11.650;2023-03-01T05:18:40;3.57;;;2.90;;
14611;SDS011;7392;52.078;11.650;2023-03-01T05:21:08;5.00;;;3.30;;
14611;SDS011;7392;52.078;11.650;2023-03-01T05:23:38;3.53;;;2.80;;
14611;SDS011;7392;52.078;11.650;2023-03-01T05:26:06;4.17;;;3.10;;
14611;SDS011;7392;52.078;11.650;2023-03-01T05:28:53;3.17;;;2.53;;
14611;SDS011;7392;52.078;11.650;2023-03-01T05:31:25;4.47;;;3.10;;
14611;SDS011;7392;52.078;11.650;2023-03-01T05:33:53;4.53;;;3.10;;
14611;SDS011;7392;52.078;11.650;2023-03-01T05:36:20;4.27;;;3.00;;
14611;SDS011;7392;52.078;11.650;2023-03-01T05:38:48;4.80;;;3.70;;
14611;SDS011;7392;52.078;11.650;2023-03-01T05:41:17;3.97;;;3.10;;
14611;SDS011;7392;52.078;11.650;2023-03-01T05:43:46;3.93;;;3.20;;
14611;SDS011;7392;52.078;11.650;2023-03-01T05:46:20;4.53;;;3.07;;
14611;SDS011;7392;52.078;11.650;2023-03-01T05:48:51;3.60;;;3.00;;
14611;SDS011;7392;52.078;11.650;2023-03-01T05:51:19;4.83;;;3.50;;
14611;SDS011;7392;52.078;11.650;2023-03-01T05:53:48;4.17;;;2.73;;
14611;SDS011;7392;52.078;11.650;2023-03-01T05:56:16;5.40;;;3.60;;
14611;SDS011;7392;52.078;11.650;2023-03-01T05:58:43;5.07;;;3.30;;
14611;SDS011;7392;52.078;11.650;2023-03-01T06:01:11;4.57;;;3.10;;
14611;SDS011;7392;52.078;11.650;2023-03-01T06:03:44;5.03;;;3.57;;
14611;SDS011;7392;52.078;11.650;2023-03-01T06:06:15;4.57;;;3.40;;
14611;SDS011;7392;52.078;11.650;2023-03-01T06:08:43;4.03;;;2.90;;
14611;SDS011;7392;52.078;11.650;2023-03-01T06:11:11;5.97;;;3.47;;
14611;SDS011;7392;52.078;11.650;2023-03-01T06:13:47;4.40;;;3.10;;
14611;SDS011;7392;52.078;11.650;2023-03-01T06:16:18;5.63;;;2.70;;
14611;SDS011;7392;52.078;11.650;2023-03-01T06:18:50;3.97;;;3.13;;
14611;SDS011;7392;52.078;11.650;2023-03-01T06:21:18;3.70;;;2.60;;
14611;SDS011;7392;52.078;11.650;2023-03-01T06:23:47;4.00;;;2.70;;
14611;SDS011;7392;52.078;11.650;2023-03-01T06:26:15;3.07;;;2.40;;
14611;SDS011;7392;52.078;11.650;2023-03-01T06:28:43;4.60;;;2.87;;
14611;SDS011;7392;52.078;11.650;2023-03-01T06:31:12;3.00;;;2.40;;
14611;SDS011;7392;52.078;11.650;2023-03-01T06:33:41;2.87;;;2.27;;
14611;SDS011;7392;52.078;11.650;2023-03-01T06:36:12;3.43;;;2.30;;
14611;SDS011;7392;52.078;11.650;2023-03-01T06:38:45;2.70;;;2.20;;
14611;SDS011;7392;52.078;11.650;2023-03-01T06:41:12;4.10;;;2.20;;
14611;SDS011;7392;52.078;11.650;2023-03-01T06:43:41;3.60;;;2.43;;
14611;SDS011;7392;52.078;11.650;2023-03-01T06:46:09;3.87;;;2.20;;
14611;SDS011;7392;52.078;11.650;2023-03-01T06:48:37;5.00;;;2.70;;
14611;SDS011;7392;52.078;11.650;2023-03-01T06:51:05;2.97;;;2.33;;
14611;SDS011;7392;52.078;11.650;2023-03-01T06:53:34;4.30;;;2.20;;
14611;SDS011;7392;52.078;11.650;2023-03-01T06:56:05;2.60;;;2.03;;
14611;SDS011;7392;52.078;11.650;2023-03-01T06:58:34;2.07;;;1.77;;
14611;SDS011;7392;52.078;11.650;2023-03-01T07:01:06;2.27;;;2.00;;
14611;SDS011;7392;52.078;11.650;2023-03-01T07:03:34;2.37;;;2.17;;
14611;SDS011;7392;52.078;11.650;2023-03-01T07:06:05;2.17;;;1.97;;
14611;SDS011;7392;52.078;11.650;2023-03-01T07:08:34;2.93;;;2.30;;
14611;SDS011;7392;52.078;11.650;2023-03-01T07:11:03;2.27;;;2.07;;
14611;SDS011;7392;52.078;11.650;2023-03-01T07:13:32;2.20;;;1.70;;
14611;SDS011;7392;52.078;11.650;2023-03-01T07:16:03;4.73;;;2.77;;
14611;SDS011;7392;52.078;11.650;2023-03-01T07:18:31;5.03;;;3.67;;
14611;SDS011;7392;52.078;11.650;2023-03-01T07:21:03;4.70;;;3.60;;
14611;SDS011;7392;52.078;11.650;2023-03-01T07:23:32;5.17;;;4.10;;
14611;SDS011;7392;52.078;11.650;2023-03-01T07:26:01;4.83;;;3.30;;
14611;SDS011;7392;52.078;11.650;2023-03-01T07:28:29;5.17;;;3.83;;
14611;SDS011;7392;52.078;11.650;2023-03-01T07:31:00;4.63;;;3.30;;
14611;SDS011;7392;52.078;11.650;2023-03-01T07:33:29;4.60;;;3.50;;
14611;SDS011;7392;52.078;11.650;2023-03-01T07:35:58;5.17;;;3.63;;
14611;SDS011;7392;52.078;11.650;2023-03-01T07:38:28;4.37;;;3.30;;
14611;SDS011;7392;52.078;11.650;2023-03-01T07:40:57;5.13;;;3.30;;
14611;SDS011;7392;52.078;11.650;2023-03-01T07:43:28;4.00;;;3.17;;
14611;SDS011;7392;52.078;11.650;2023-03-01T07:45:57;4.10;;;3.30;;
14611;SDS011;7392;52.078;11.650;2023-03-01T07:48:26;4.37;;;3.33;;
14611;SDS011;7392;52.078;11.650;2023-03-01T07:50:55;5.03;;;3.70;;
14611;SDS011;7392;52.078;11.650;2023-03-01T07:53:25;4.33;;;3.30;;
14611;SDS011;7392;52.078;11.650;2023-03-01T07:56:00;4.50;;;3.50;;
14611;SDS011;7392;52.078;11.650;2023-03-01T07:58:30;4.57;;;3.17;;
14611;SDS011;7392;52.078;11.650;2023-03-01T08:01:00;5.10;;;3.60;;
14611;SDS011;7392;52.078;11.650;2023-03-01T08:03:28;6.13;;;3.40;;
14611;SDS011;7392;52.078;11.650;2023-03-01T08:05:59;5.03;;;3.63;;
14611;SDS011;7392;52.078;11.650;2023-03-01T08:08:29;5.67;;;3.50;;
14611;SDS011;7392;52.078;11.650;2023-03-01T08:10:58;5.13;;;3.33;;
14611;SDS011;7392;52.078;11.650;2023-03-01T08:13:28;4.63;;;3.50;;
14611;SDS011;7392;52.078;11.650;2023-03-01T08:16:00;5.63;;;4.00;;
14611;SDS011;7392;52.078;11.650;2023-03-01T08:18:29;4.70;;;3.60;;
14611;SDS011;7392;52.078;11.650;2023-03-01T08:21:00;5.77;;;4.10;;
14611;SDS011;7392;52.078;11.650;2023-03-01T08:23:29;3.87;;;3.47;;
14611;SDS011;7392;52.078;11.650;2023-03-01T08:26:03;4.97;;;3.77;;
14611;SDS011;7392;52.078;11.650;2023-03-01T08:28:34;5.33;;;4.00;;
14611;SDS011;7392;52.078;11.650;2023-03-01T08:31:02;6.13;;;3.90;;
14611;SDS011;7392;52.078;11.650;2023-03-01T08:33:40;5.60;;;3.93;;
14611;SDS011;7392;52.078;11.650;2023-03-01T08:36:08;4.50;;;3.50;;
14611;SDS011;7392;52.078;11.650;2023-03-01T08:38:36;6.37;;;4.10;;
14611;SDS011;7392;52.078;11.650;2023-03-01T08:41:04;6.13;;;4.23;;
14611;SDS011;7392;52.078;11.650;2023-03-01T08:43:32;4.87;;;4.00;;
14611;SDS011;7392;52.078;11.650;2023-03-01T08:46:01;5.90;;;4.90;;
14611;SDS011;7392;52.078;11.650;2023-03-01T08:48:29;6.40;;;4.93;;
14611;SDS011;7392;52.078;11.650;2023-03-01T08:50:56;6.70;;;4.87;;
14611;SDS011;7392;52.078;11.650;2023-03-01T08:53:24;6.73;;;4.50;;
14611;SDS011;7392;52.078;11.650;2023-03-01T08:55:52;5.60;;;4.40;;
14611;SDS011;7392;52.078;11.650;2023-03-01T08:58:20;6.83;;;5.00;;
14611;SDS011;7392;52.078;11.650;2023-03-01T09:00:49;5.70;;;4.30;;
14611;SDS011;7392;52.078;11.650;2023-03-01T09:03:16;5.50;;;4.23;;
14611;SDS011;7392;52.078;11.650;2023-03-01T09:05:44;7.57;;;4.80;;
14611;SDS011;7392;52.078;11.650;2023-03-01T09:08:12;5.03;;;4.00;;
14611;SDS011;7392;52.078;11.650;2023-03-01T09:10:39;5.57;;;4.60;;
14611;SDS011;7392;52.078;11.650;2023-03-01T09:13:07;6.73;;;4.73;;
14611;SDS011;7392;52.078;11.650;2023-03-01T09:15:36;5.80;;;4.77;;
14611;SDS011;7392;52.078;11.650;2023-03-01T09:18:05;6.63;;;4.70;;
14611;SDS011;7392;52.078;11.650;2023-03-01T09:20:33;5.93;;;4.07;;
14611;SDS011;7392;52.078;11.650;2023-03-01T09:23:02;5.10;;;4.33;;
14611;SDS011;7392;52.078;11.650;2023-03-01T09:25:29;5.13;;;3.93;;
14611;SDS011;7392;52.078;11.650;2023-03-01T09:27:57;5.63;;;3.87;;
14611;SDS011;7392;52.078;11.650;2023-03-01T09:30:25;4.77;;;3.90;;
14611;SDS011;7392;52.078;11.650;2023-03-01T09:32:52;4.73;;;3.60;;
14611;SDS011;7392;52.078;11.650;2023-03-01T09:35:21;4.63;;;3.60;;
14611;SDS011;7392;52.078;11.650;2023-03-01T09:37:49;4.80;;;3.30;;
14611;SDS011;7392;52.078;11.650;2023-03-01T09:40:18;4.07;;;3.40;;
14611;SDS011;7392;52.078;11.650;2023-03-01T09:42:52;3.33;;;3.03;;
14611;SDS011;7392;52.078;11.650;2023-03-01T09:45:27;3.20;;;2.77;;
14611;SDS011;7392;52.078;11.650;2023-03-01T09:47:59;3.60;;;3.17;;
14611;SDS011;7392;52.078;11.650;2023-03-01T09:50:32;4.67;;;3.90;;
14611;SDS011;7392;52.078;11.650;2023-03-01T09:53:02;5.67;;;4.00;;
14611;SDS011;7392;52.078;11.650;2023-03-01T09:55:34;4.80;;;3.80;;
14611;SDS011;7392;52.078;11.650;2023-03-01T09:58:21;5.80;;;3.80;;
14611;SDS011;7392;52.078;11.650;2023-03-01T10:01:18;6.13;;;3.70;;
14611;SDS011;7392;52.078;11.650;2023-03-01T10:04:04;4.37;;;3.40;;
14611;SDS011;7392;52.078;11.650;2023-03-01T10:06:43;4.23;;;3.30;;
14611;SDS011;7392;52.078;11.650;2023-03-01T10:09:18;4.57;;;3.70;;
14611;SDS011;7392;52.078;11.650;2023-03-01T10:11:48;5.60;;;3.80;;
14611;SDS011;7392;52.078;11.650;2023-03-01T10:14:30;3.60;;;3.07;;
14611;SDS011;7392;52.078;11.650;2023-03-01T10:17:03;4.03;;;3.53;;
14611;SDS011;7392;52.078;11.650;2023-03-01T10:19:36;5.50;;;3.70;;
14611;SDS011;7392;52.078;11.650;2023-03-01T10:22:11;4.03;;;3.40;;
14611;SDS011;7392;52.078;11.650;2023-03-01T10:24:42;4.30;;;2.93;;
14611;SDS011;7392;52.078;11.650;2023-03-01T10:27:11;5.20;;;3.27;;
14611;SDS011;7392;52.078;11.650;2023-03-01T10:29:46;4.20;;;3.00;;
14611;SDS011;7392;52.078;11.650;2023-03-01T10:32:17;4.10;;;2.97;;
14611;SDS011;7392;52.078;11.650;2023-03-01T10:34:50;4.07;;;3.20;;
14611;SDS011;7392;52.078;11.650;2023-03-01T10:37:20;3.73;;;3.03;;
14611;SDS011;7392;52.078;11.650;2023-03-01T10:39:55;3.90;;;2.93;;
14611;SDS011;7392;52.078;11.650;2023-03-01T10:42:26;4.27;;;3.20;;
14611;SDS011;7392;52.078;11.650;2023-03-01T10:44:56;4.20;;;3.27;;
14611;SDS011;7392;52.078;11.650;2023-03-01T10:47:25;5.03;;;3.27;;
14611;SDS011;7392;52.078;11.650;2023-03-01T10:49:55;3.50;;;2.90;;
14611;SDS011;7392;52.078;11.650;2023-03-01T10:52:27;3.53;;;2.90;;
14611;SDS011;7392;52.078;11.650;2023-03-01T10:54:57;3.60;;;2.90;;
14611;SDS011;7392;52.078;11.650;2023-03-01T10:57:31;4.53;;;3.53;;
14611;SDS011;7392;52.078;11.650;2023-03-01T11:00:18;3.70;;;3.13;;
14611;SDS011;7392;52.078;11.650;2023-03-01T11:02:49;3.10;;;2.70;;
14611;SDS011;7392;52.078;11.650;2023-03-01T11:05:20;3.37;;;2.80;;
14611;SDS011;7392;52.078;11.650;2023-03-01T11:07:53;3.23;;;2.83;;
14611;SDS011;7392;52.078;11.650;2023-03-01T11:10:23;3.30;;;2.80;;
14611;SDS011;7392;52.078;11.650;2023-03-01T11:12:53;3.83;;;2.60;;
14611;SDS011;7392;52.078;11.650;2023-03-01T11:15:23;4.07;;;3.20;;
14611;SDS011;7392;52.078;11.650;2023-03-01T11:17:54;3.40;;;2.70;;
14611;SDS011;7392;52.078;11.650;2023-03-01T11:20:38;5.13;;;3.23;;
14611;SDS011;7392;52.078;11.650;2023-03-01T11:23:10;3.87;;;3.00;;
14611;SDS011;7392;52.078;11.650;2023-03-01T11:25:40;5.03;;;3.47;;
14611;SDS011;7392;52.078;11.650;2023-03-01T11:28:12;4.03;;;3.00;;
14611;SDS011;7392;52.078;11.650;2023-03-01T11:30:45;3.73;;;2.87;;
14611;SDS011;7392;52.078;11.650;2023-03-01T11:33:34;4.40;;;3.20;;
14611;SDS011;7392;52.078;11.650;2023-03-01T11:36:05;4.77;;;3.63;;
14611;SDS011;7392;52.078;11.650;2023-03-01T11:38:39;4.63;;;3.30;;
14611;SDS011;7392;52.078;11.650;2023-03-01T11:41:08;4.03;;;3.10;;
14611;SDS011;7392;52.078;11.650;2023-03-01T11:43:44;3.73;;;3.13;;
14611;SDS011;7392;52.078;11.650;2023-03-01T11:49:38;5.93;;;3.73;;
14611;SDS011;7392;52.078;11.650;2023-03-01T11:52:18;4.87;;;3.73;;
14611;SDS011;7392;52.078;11.650;2023-03-01T11:55:00;4.17;;;3.07;;
14611;SDS011;7392;52.078;11.650;2023-03-01T11:57:49;4.10;;;3.37;;
14611;SDS011;7392;52.078;11.650;2023-03-01T12:00:36;3.57;;;3.10;;
14611;SDS011;7392;52.078;11.650;2023-03-01T12:03:25;4.00;;;3.17;;
14611;SDS011;7392;52.078;11.650;2023-03-01T12:08:59;2.93;;;2.60;;
14611;SDS011;7392;52.078;11.650;2023-03-01T12:11:41;4.20;;;3.10;;
14611;SDS011;7392;52.078;11.650;2023-03-01T12:17:18;3.07;;;2.70;;
14611;SDS011;7392;52.078;11.650;2023-03-01T12:20:08;2.77;;;2.53;;
14611;SDS011;7392;52.078;11.650;2023-03-01T12:22:47;3.13;;;2.57;;
14611;SDS011;7392;52.078;11.650;2023-03-01T12:25:45;3.63;;;2.80;;
14611;SDS011;7392;52.078;11.650;2023-03-01T12:31:23;3.30;;;2.87;;
14611;SDS011;7392;52.078;11.650;2023-03-01T12:34:08;3.40;;;2.90;;
14611;SDS011;7392;52.078;11.650;2023-03-01T12:36:53;3.53;;;2.90;;
14611;SDS011;7392;52.078;11.650;2023-03-01T12:39:33;3.83;;;2.90;;
14611;SDS011;7392;52.078;11.650;2023-03-01T12:42:15;3.07;;;2.60;;
14611;SDS011;7392;52.078;11.650;2023-03-01T12:44:59;4.10;;;2.90;;
14611;SDS011;7392;52.078;11.650;2023-03-01T12:47:43;3.40;;;3.00;;
14611;SDS011;7392;52.078;11.650;2023-03-01T12:50:23;4.33;;;2.97;;
14611;SDS011;7392;52.078;11.650;2023-03-01T12:52:56;3.80;;;3.30;;
14611;SDS011;7392;52.078;11.650;2023-03-01T12:55:26;4.33;;;2.70;;
14611;SDS011;7392;52.078;11.650;2023-03-01T12:58:01;3.53;;;3.00;;
14611;SDS011;7392;52.078;11.650;2023-03-01T13:00:38;4.77;;;3.30;;
14611;SDS011;7392;52.078;11.650;2023-03-01T13:03:14;4.00;;;3.53;;
14611;SDS011;7392;52.078;11.650;2023-03-01T13:05:55;3.43;;;3.13;;
14611;SDS011;7392;52.078;11.650;2023-03-01T13:08:34;2.90;;;2.60;;
14611;SDS011;7392;52.078;11.650;2023-03-01T13:11:07;4.10;;;2.90;;
14611;SDS011;7392;52.078;11.650;2023-03-01T13:13:43;3.60;;;2.33;;
14611;SDS011;7392;52.078;11.650;2023-03-01T13:16:21;2.63;;;2.00;;
14611;SDS011;7392;52.078;11.650;2023-03-01T13:19:06;2.83;;;2.47;;
14611;SDS011;7392;52.078;11.650;2023-03-01T13:21:43;2.87;;;2.40;;
14611;SDS011;7392;52.078;11.650;2023-03-01T13:24:24;4.07;;;2.37;;
14611;SDS011;7392;52.078;11.650;2023-03-01T13:29:51;4.63;;;2.50;;
14611;SDS011;7392;52.078;11.650;2023-03-01T13:32:22;3.40;;;2.87;;
14611;SDS011;7392;52.078;11.650;2023-03-01T13:41:04;2.73;;;2.40;;
14611;SDS011;7392;52.078;11.650;2023-03-01T13:43:33;3.17;;;2.30;;
14611;SDS011;7392;52.078;11.650;2023-03-01T13:46:07;3.17;;;2.57;;
14611;SDS011;7392;52.078;11.650;2023-03-01T13:48:39;2.63;;;2.20;;
14611;SDS011;7392;52.078;11.650;2023-03-01T13:51:08;3.43;;;2.77;;
14611;SDS011;7392;52.078;11.650;2023-03-01T13:53:38;4.00;;;2.17;;
14611;SDS011;7392;52.078;11.650;2023-03-01T13:56:09;2.60;;;2.23;;
14611;SDS011;7392;52.078;11.650;2023-03-01T13:58:44;3.47;;;2.70;;
14611;SDS011;7392;52.078;11.650;2023-03-01T14:01:21;2.83;;;2.20;;
14611;SDS011;7392;52.078;11.650;2023-03-01T14:03:52;2.37;;;2.10;;
14611;SDS011;7392;52.078;11.650;2023-03-01T14:06:21;2.43;;;2.00;;
14611;SDS011;7392;52.078;11.650;2023-03-01T14:08:51;2.37;;;1.80;;
14611;SDS011;7392;52.078;11.650;2023-03-01T14:14:33;2.53;;;2.00;;
14611;SDS011;7392;52.078;11.650;2023-03-01T14:17:11;2.77;;;2.20;;
14611;SDS011;7392;52.078;11.650;2023-03-01T14:20:07;2.93;;;2.30;;
14611;SDS011;7392;52.078;11.650;2023-03-01T14:22:40;2.37;;;2.10;;
14611;SDS011;7392;52.078;11.650;2023-03-01T14:25:20;3.60;;;2.40;;
14611;SDS011;7392;52.078;11.650;2023-03-01T14:27:57;3.10;;;2.40;;
14611;SDS011;7392;52.078;11.650;2023-03-01T14:30:31;2.77;;;2.13;;
14611;SDS011;7392;52.078;11.650;2023-03-01T14:33:03;2.70;;;2.20;;
14611;SDS011;7392;52.078;11.650;2023-03-01T14:35:34;3.17;;;2.20;;
14611;SDS011;7392;52.078;11.650;2023-03-01T14:38:03;2.73;;;2.13;;
14611;SDS011;7392;52.078;11.650;2023-03-01T14:40:31;3.13;;;2.40;;
14611;SDS011;7392;52.078;11.650;2023-03-01T14:43:03;2.30;;;2.00;;
14611;SDS011;7392;52.078;11.650;2023-03-01T14:45:36;2.57;;;2.20;;
14611;SDS011;7392;52.078;11.650;2023-03-01T14:48:05;2.10;;;1.90;;
14611;SDS011;7392;52.078;11.650;2023-03-01T14:50:36;1.73;;;1.63;;
14611;SDS011;7392;52.078;11.650;2023-03-01T14:53:11;2.40;;;1.97;;
14611;SDS011;7392;52.078;11.650;2023-03-01T14:55:45;2.53;;;2.27;;
14611;SDS011;7392;52.078;11.650;2023-03-01T14:58:18;2.23;;;2.00;;
14611;SDS011;7392;52.078;11.650;2023-03-01T15:00:48;2.40;;;2.00;;
14611;SDS011;7392;52.078;11.650;2023-03-01T15:03:19;2.03;;;1.90;;
14611;SDS011;7392;52.078;11.650;2023-03-01T15:05:54;3.17;;;2.47;;
14611;SDS011;7392;52.078;11.650;2023-03-01T15:08:23;3.13;;;2.20;;
14611;SDS011;7392;52.078;11.650;2023-03-01T15:10:56;2.93;;;2.33;;
14611;SDS011;7392;52.078;11.650;2023-03-01T15:13:29;2.93;;;2.47;;
14611;SDS011;7392;52.078;11.650;2023-03-01T15:16:06;3.10;;;2.57;;
14611;SDS011;7392;52.078;11.650;2023-03-01T15:18:37;3.33;;;2.40;;
14611;SDS011;7392;52.078;11.650;2023-03-01T15:21:15;3.90;;;2.40;;
14611;SDS011;7392;52.078;11.650;2023-03-01T15:23:47;2.20;;;1.80;;
14611;SDS011;7392;52.078;11.650;2023-03-01T15:26:23;2.23;;;2.00;;
14611;SDS011;7392;52.078;11.650;2023-03-01T15:28:53;2.23;;;2.03;;
14611;SDS011;7392;52.078;11.650;2023-03-01T15:31:25;3.30;;;2.13;;
14611;SDS011;7392;52.078;11.650;2023-03-01T15:34:07;2.83;;;2.20;;
14611;SDS011;7392;52.078;11.650;2023-03-01T15:36:39;3.00;;;2.40;;
14611;SDS011;7392;52.078;11.650;2023-03-01T15:39:27;2.00;;;1.80;;